sensor_id;sensor_type;location;lat;lon;timestamp;temperature;humidity
61151;DHT22;47029;50.994;2.876;2023-01-29T00:02:21;5.00;99.90
61151;DHT22;47029;50.994;2.876;2023-01-29T00:04:47;5.10;99.90
61151;DHT22;47029;50.994;2.876;2023-01-29T00:07:13;5.10;99.90
61151;DHT22;47029;50.994;2.876;2023-01-29T00:09:39;4.90;99.90
61151;DHT22;47029;50.994;2.876;2023-01-29T00:12:05;5.00;99.90
61151;DHT22;47029;50.994;2.876;2023-01-29T00:14:33;5.00;99.90
61151;DHT22;47029;50.994;2.876;2023-01-29T00:17:02;5.00;99.90
61151;DHT22;47029;50.994;2.876;2023-01-29T00:19:28;5.00;99.90
61151;DHT22;47029;50.994;2.876;2023-01-29T00:21:53;5.00;99.90
61151;DHT22;47029;50.994;2.876;2023-01-29T00:24:19;4.90;99.90
61151;DHT22;47029;50.994;2.876;2023-01-29T00:26:45;4.90;99.90
61151;DHT22;47029;50.994;2.876;2023-01-29T00:29:10;4.90;99.90
61151;DHT22;47029;50.994;2.876;2023-01-29T00:31:36;4.90;99.90
61151;DHT22;47029;50.994;2.876;2023-01-29T00:34:02;4.90;99.90
61151;DHT22;47029;50.994;2.876;2023-01-29T00:36:28;4.80;99.90
61151;DHT22;47029;50.994;2.876;2023-01-29T00:38:58;5.00;99.90
61151;DHT22;47029;50.994;2.876;2023-01-29T00:41:31;5.00;99.90
61151;DHT22;47029;50.994;2.876;2023-01-29T00:44:16;4.90;99.90
61151;DHT22;47029;50.994;2.876;2023-01-29T00:47:01;4.90;99.90
61151;DHT22;47029;50.994;2.876;2023-01-29T00:49:27;4.90;99.90
61151;DHT22;47029;50.994;2.876;2023-01-29T00:51:54;5.00;99.90
61151;DHT22;47029;50.994;2.876;2023-01-29T00:54:38;5.00;99.90
61151;DHT22;47029;50.994;2.876;2023-01-29T00:57:04;4.90;99.90
61151;DHT22;47029;50.994;2.876;2023-01-29T00:59:30;4.80;99.90
61151;DHT22;47029;50.994;2.876;2023-01-29T01:01:55;4.80;99.90
61151;DHT22;47029;50.994;2.876;2023-01-29T01:04:40;4.80;99.90
61151;DHT22;47029;50.994;2.876;2023-01-29T01:07:06;4.80;99.90
61151;DHT22;47029;50.994;2.876;2023-01-29T01:09:36;4.70;99.90
61151;DHT22;47029;50.994;2.876;2023-01-29T01:12:21;4.80;99.90
61151;DHT22;47029;50.994;2.876;2023-01-29T01:14:47;4.90;99.90
61151;DHT22;47029;50.994;2.876;2023-01-29T01:17:13;5.10;99.90
61151;DHT22;47029;50.994;2.876;2023-01-29T01:19:40;5.10;99.90
61151;DHT22;47029;50.994;2.876;2023-01-29T01:22:05;5.00;99.90
61151;DHT22;47029;50.994;2.876;2023-01-29T01:24:31;4.10;99.90
61151;DHT22;47029;50.994;2.876;2023-01-29T01:26:57;4.80;99.90
61151;DHT22;47029;50.994;2.876;2023-01-29T01:29:23;4.80;99.90
61151;DHT22;47029;50.994;2.876;2023-01-29T01:31:49;4.80;99.90
61151;DHT22;47029;50.994;2.876;2023-01-29T01:34:14;4.80;99.90
61151;DHT22;47029;50.994;2.876;2023-01-29T01:36:40;5.00;99.90
61151;DHT22;47029;50.994;2.876;2023-01-29T01:39:06;5.20;99.90
61151;DHT22;47029;50.994;2.876;2023-01-29T01:41:32;5.10;99.90
61151;DHT22;47029;50.994;2.876;2023-01-29T01:43:59;5.00;99.90
61151;DHT22;47029;50.994;2.876;2023-01-29T01:46:32;4.80;99.90
61151;DHT22;47029;50.994;2.876;2023-01-29T01:49:05;4.80;99.90
61151;DHT22;47029;50.994;2.876;2023-01-29T01:51:35;4.90;99.90
61151;DHT22;47029;50.994;2.876;2023-01-29T01:54:07;5.20;99.90
61151;DHT22;47029;50.994;2.876;2023-01-29T01:56:39;5.10;99.90
61151;DHT22;47029;50.994;2.876;2023-01-29T01:59:12;5.00;99.90
61151;DHT22;47029;50.994;2.876;2023-01-29T02:01:42;5.00;99.90
61151;DHT22;47029;50.994;2.876;2023-01-29T02:04:12;5.00;99.90
61151;DHT22;47029;50.994;2.876;2023-01-29T02:06:58;5.00;99.90
61151;DHT22;47029;50.994;2.876;2023-01-29T02:09:51;5.00;99.90
61151;DHT22;47029;50.994;2.876;2023-01-29T02:12:18;5.00;99.90
61151;DHT22;47029;50.994;2.876;2023-01-29T02:14:44;6.10;99.90
61151;DHT22;47029;50.994;2.876;2023-01-29T02:17:14;4.90;99.90
61151;DHT22;47029;50.994;2.876;2023-01-29T02:25:34;5.00;99.90
61151;DHT22;47029;50.994;2.876;2023-01-29T02:31:16;5.10;99.90
61151;DHT22;47029;50.994;2.876;2023-01-29T02:37:00;5.00;99.90
61151;DHT22;47029;50.994;2.876;2023-01-29T02:39:37;5.00;99.90
61151;DHT22;47029;50.994;2.876;2023-01-29T02:45:11;4.90;99.90
61151;DHT22;47029;50.994;2.876;2023-01-29T02:47:43;4.70;99.90
61151;DHT22;47029;50.994;2.876;2023-01-29T02:52:43;4.90;99.90
61151;DHT22;47029;50.994;2.876;2023-01-29T02:57:59;4.80;99.90
61151;DHT22;47029;50.994;2.876;2023-01-29T03:00:33;4.80;99.90
61151;DHT22;47029;50.994;2.876;2023-01-29T03:08:11;4.60;99.90
61151;DHT22;47029;50.994;2.876;2023-01-29T03:10:51;4.60;99.90
61151;DHT22;47029;50.994;2.876;2023-01-29T03:13:39;4.60;99.90
61151;DHT22;47029;50.994;2.876;2023-01-29T03:16:43;4.50;99.90
61151;DHT22;47029;50.994;2.876;2023-01-29T03:19:35;4.60;99.90
61151;DHT22;47029;50.994;2.876;2023-01-29T03:22:01;4.60;99.90
61151;DHT22;47029;50.994;2.876;2023-01-29T03:24:43;4.80;99.90
61151;DHT22;47029;50.994;2.876;2023-01-29T03:27:42;4.70;99.90
61151;DHT22;47029;50.994;2.876;2023-01-29T03:30:30;4.50;99.90
61151;DHT22;47029;50.994;2.876;2023-01-29T03:33:17;4.40;99.90
61151;DHT22;47029;50.994;2.876;2023-01-29T03:35:58;4.30;99.90
61151;DHT22;47029;50.994;2.876;2023-01-29T03:38:28;4.20;99.90
61151;DHT22;47029;50.994;2.876;2023-01-29T03:41:01;4.30;99.90
61151;DHT22;47029;50.994;2.876;2023-01-29T03:46:40;4.60;99.90
61151;DHT22;47029;50.994;2.876;2023-01-29T03:49:26;4.70;99.90
61151;DHT22;47029;50.994;2.876;2023-01-29T03:57:19;5.00;99.90
61151;DHT22;47029;50.994;2.876;2023-01-29T04:00:16;4.90;99.90
61151;DHT22;47029;50.994;2.876;2023-01-29T04:02:48;4.90;99.90
61151;DHT22;47029;50.994;2.876;2023-01-29T04:05:20;4.90;99.90
61151;DHT22;47029;50.994;2.876;2023-01-29T04:07:47;5.00;99.90
61151;DHT22;47029;50.994;2.876;2023-01-29T04:10:20;5.10;99.90
61151;DHT22;47029;50.994;2.876;2023-01-29T04:12:57;5.10;99.90
61151;DHT22;47029;50.994;2.876;2023-01-29T04:15:28;4.90;99.90
61151;DHT22;47029;50.994;2.876;2023-01-29T04:17:57;5.00;99.90
61151;DHT22;47029;50.994;2.876;2023-01-29T04:20:24;5.00;99.90
61151;DHT22;47029;50.994;2.876;2023-01-29T04:22:52;5.00;99.90
61151;DHT22;47029;50.994;2.876;2023-01-29T04:25:28;5.10;99.90
61151;DHT22;47029;50.994;2.876;2023-01-29T04:28:20;4.90;99.90
61151;DHT22;47029;50.994;2.876;2023-01-29T04:30:57;5.00;99.90
61151;DHT22;47029;50.994;2.876;2023-01-29T04:41:53;5.10;99.90
61151;DHT22;47029;50.994;2.876;2023-01-29T04:44:22;5.20;99.90
61151;DHT22;47029;50.994;2.876;2023-01-29T04:46:57;5.20;99.90
61151;DHT22;47029;50.994;2.876;2023-01-29T04:55:19;5.20;99.90
61151;DHT22;47029;50.994;2.876;2023-01-29T04:57:52;5.20;99.90
61151;DHT22;47029;50.994;2.876;2023-01-29T05:00:32;5.10;99.90
61151;DHT22;47029;50.994;2.876;2023-01-29T05:03:00;5.10;99.90
61151;DHT22;47029;50.994;2.876;2023-01-29T05:05:27;5.20;99.90
61151;DHT22;47029;50.994;2.876;2023-01-29T05:07:54;5.10;99.90
61151;DHT22;47029;50.994;2.876;2023-01-29T05:10:22;5.20;99.90
61151;DHT22;47029;50.994;2.876;2023-01-29T05:12:54;5.00;99.90
61151;DHT22;47029;50.994;2.876;2023-01-29T05:15:29;5.20;99.90
61151;DHT22;47029;50.994;2.876;2023-01-29T05:17:58;5.10;99.90
61151;DHT22;47029;50.994;2.876;2023-01-29T05:20:31;5.00;99.90
61151;DHT22;47029;50.994;2.876;2023-01-29T05:22:57;4.80;99.90
61151;DHT22;47029;50.994;2.876;2023-01-29T05:25:31;4.90;99.90
61151;DHT22;47029;50.994;2.876;2023-01-29T05:27:57;4.80;99.90
61151;DHT22;47029;50.994;2.876;2023-01-29T05:30:31;4.90;99.90
61151;DHT22;47029;50.994;2.876;2023-01-29T05:32:56;5.00;99.90
61151;DHT22;47029;50.994;2.876;2023-01-29T05:35:27;5.10;99.90
61151;DHT22;47029;50.994;2.876;2023-01-29T05:37:54;5.10;99.90
61151;DHT22;47029;50.994;2.876;2023-01-29T05:40:21;5.10;99.90
61151;DHT22;47029;50.994;2.876;2023-01-29T05:42:49;5.10;99.90
61151;DHT22;47029;50.994;2.876;2023-01-29T05:45:16;5.20;99.90
61151;DHT22;47029;50.994;2.876;2023-01-29T05:47:43;5.30;99.90
61151;DHT22;47029;50.994;2.876;2023-01-29T05:50:12;5.30;99.90
61151;DHT22;47029;50.994;2.876;2023-01-29T05:52:41;5.50;99.90
61151;DHT22;47029;50.994;2.876;2023-01-29T05:55:08;5.40;99.90
61151;DHT22;47029;50.994;2.876;2023-01-29T05:57:34;5.40;99.90
61151;DHT22;47029;50.994;2.876;2023-01-29T05:59:59;5.20;99.90
61151;DHT22;47029;50.994;2.876;2023-01-29T06:02:28;5.20;99.90
61151;DHT22;47029;50.994;2.876;2023-01-29T06:04:53;5.20;99.90
61151;DHT22;47029;50.994;2.876;2023-01-29T06:07:19;5.40;99.90
61151;DHT22;47029;50.994;2.876;2023-01-29T06:09:45;5.40;99.90
61151;DHT22;47029;50.994;2.876;2023-01-29T06:12:10;5.30;99.90
61151;DHT22;47029;50.994;2.876;2023-01-29T06:14:37;5.30;99.90
61151;DHT22;47029;50.994;2.876;2023-01-29T06:17:05;5.30;99.90
61151;DHT22;47029;50.994;2.876;2023-01-29T06:19:30;5.30;99.90
61151;DHT22;47029;50.994;2.876;2023-01-29T06:21:58;5.30;99.90
61151;DHT22;47029;50.994;2.876;2023-01-29T06:24:26;5.50;99.90
61151;DHT22;47029;50.994;2.876;2023-01-29T06:26:52;5.50;99.90
61151;DHT22;47029;50.994;2.876;2023-01-29T06:29:18;5.40;99.90
61151;DHT22;47029;50.994;2.876;2023-01-29T06:31:43;5.50;99.90
61151;DHT22;47029;50.994;2.876;2023-01-29T06:34:09;5.50;99.90
61151;DHT22;47029;50.994;2.876;2023-01-29T06:36:35;5.40;99.90
61151;DHT22;47029;50.994;2.876;2023-01-29T06:39:01;5.40;99.90
61151;DHT22;47029;50.994;2.876;2023-01-29T06:41:26;5.50;99.90
61151;DHT22;47029;50.994;2.876;2023-01-29T06:43:53;5.50;99.90
61151;DHT22;47029;50.994;2.876;2023-01-29T06:46:18;5.40;99.90
61151;DHT22;47029;50.994;2.876;2023-01-29T06:48:44;5.40;99.90
61151;DHT22;47029;50.994;2.876;2023-01-29T06:51:10;5.40;99.90
61151;DHT22;47029;50.994;2.876;2023-01-29T06:53:37;5.40;99.90
61151;DHT22;47029;50.994;2.876;2023-01-29T06:56:03;5.50;99.90
61151;DHT22;47029;50.994;2.876;2023-01-29T06:58:30;5.50;99.90
61151;DHT22;47029;50.994;2.876;2023-01-29T07:01:06;5.60;99.90
61151;DHT22;47029;50.994;2.876;2023-01-29T07:03:33;5.60;99.90
61151;DHT22;47029;50.994;2.876;2023-01-29T07:06:01;5.40;99.90
61151;DHT22;47029;50.994;2.876;2023-01-29T07:08:27;5.50;99.90
61151;DHT22;47029;50.994;2.876;2023-01-29T07:10:57;5.60;99.90
61151;DHT22;47029;50.994;2.876;2023-01-29T07:13:24;5.70;99.90
61151;DHT22;47029;50.994;2.876;2023-01-29T07:15:49;5.60;99.90
61151;DHT22;47029;50.994;2.876;2023-01-29T07:18:15;5.70;99.90
61151;DHT22;47029;50.994;2.876;2023-01-29T07:20:42;5.70;99.90
61151;DHT22;47029;50.994;2.876;2023-01-29T07:23:12;5.70;99.90
61151;DHT22;47029;50.994;2.876;2023-01-29T07:25:38;5.50;99.90
61151;DHT22;47029;50.994;2.876;2023-01-29T07:28:04;5.50;99.90
61151;DHT22;47029;50.994;2.876;2023-01-29T07:30:31;5.60;99.90
61151;DHT22;47029;50.994;2.876;2023-01-29T07:33:05;5.60;99.90
61151;DHT22;47029;50.994;2.876;2023-01-29T07:35:34;5.50;99.90
61151;DHT22;47029;50.994;2.876;2023-01-29T07:38:00;5.40;99.90
61151;DHT22;47029;50.994;2.876;2023-01-29T07:40:26;5.40;99.90
61151;DHT22;47029;50.994;2.876;2023-01-29T07:43:00;5.40;99.90
61151;DHT22;47029;50.994;2.876;2023-01-29T07:45:28;5.30;99.90
61151;DHT22;47029;50.994;2.876;2023-01-29T07:47:56;5.40;99.90
61151;DHT22;47029;50.994;2.876;2023-01-29T07:50:23;5.40;99.90
61151;DHT22;47029;50.994;2.876;2023-01-29T07:52:50;5.20;99.90
61151;DHT22;47029;50.994;2.876;2023-01-29T07:55:16;5.30;99.90
61151;DHT22;47029;50.994;2.876;2023-01-29T07:57:42;5.50;99.90
61151;DHT22;47029;50.994;2.876;2023-01-29T08:00:09;5.40;99.90
61151;DHT22;47029;50.994;2.876;2023-01-29T08:02:36;5.50;99.90
61151;DHT22;47029;50.994;2.876;2023-01-29T08:05:02;5.60;99.90
61151;DHT22;47029;50.994;2.876;2023-01-29T08:07:30;5.70;99.90
61151;DHT22;47029;50.994;2.876;2023-01-29T08:09:56;4.50;99.90
61151;DHT22;47029;50.994;2.876;2023-01-29T08:12:21;5.70;99.90
61151;DHT22;47029;50.994;2.876;2023-01-29T08:14:47;5.70;99.90
61151;DHT22;47029;50.994;2.876;2023-01-29T08:17:15;5.60;99.90
61151;DHT22;47029;50.994;2.876;2023-01-29T08:19:41;5.60;99.90
61151;DHT22;47029;50.994;2.876;2023-01-29T08:22:09;5.70;99.90
61151;DHT22;47029;50.994;2.876;2023-01-29T08:24:35;5.50;99.90
61151;DHT22;47029;50.994;2.876;2023-01-29T08:27:00;5.40;99.90
61151;DHT22;47029;50.994;2.876;2023-01-29T08:29:26;5.40;99.90
61151;DHT22;47029;50.994;2.876;2023-01-29T08:31:52;5.40;99.90
61151;DHT22;47029;50.994;2.876;2023-01-29T08:34:20;5.60;99.90
61151;DHT22;47029;50.994;2.876;2023-01-29T08:36:45;5.50;99.90
61151;DHT22;47029;50.994;2.876;2023-01-29T08:39:12;5.50;99.90
61151;DHT22;47029;50.994;2.876;2023-01-29T08:41:37;5.60;99.90
61151;DHT22;47029;50.994;2.876;2023-01-29T08:44:03;5.60;99.90
61151;DHT22;47029;50.994;2.876;2023-01-29T08:46:30;5.50;99.90
61151;DHT22;47029;50.994;2.876;2023-01-29T08:48:55;5.60;99.90
61151;DHT22;47029;50.994;2.876;2023-01-29T08:51:23;5.60;99.90
61151;DHT22;47029;50.994;2.876;2023-01-29T08:53:49;5.80;99.90
61151;DHT22;47029;50.994;2.876;2023-01-29T08:56:15;5.70;99.90
61151;DHT22;47029;50.994;2.876;2023-01-29T08:58:43;5.70;99.90
61151;DHT22;47029;50.994;2.876;2023-01-29T09:01:11;5.70;99.90
61151;DHT22;47029;50.994;2.876;2023-01-29T09:03:36;5.50;99.90
61151;DHT22;47029;50.994;2.876;2023-01-29T09:06:07;5.50;99.90
61151;DHT22;47029;50.994;2.876;2023-01-29T09:08:33;5.50;99.90
61151;DHT22;47029;50.994;2.876;2023-01-29T09:10:58;5.30;99.90
61151;DHT22;47029;50.994;2.876;2023-01-29T09:13:25;5.40;99.90
61151;DHT22;47029;50.994;2.876;2023-01-29T09:15:51;5.50;99.90
61151;DHT22;47029;50.994;2.876;2023-01-29T09:18:19;5.50;99.90
61151;DHT22;47029;50.994;2.876;2023-01-29T09:20:46;5.60;99.90
61151;DHT22;47029;50.994;2.876;2023-01-29T09:23:12;5.60;99.90
61151;DHT22;47029;50.994;2.876;2023-01-29T09:25:38;5.20;99.90
61151;DHT22;47029;50.994;2.876;2023-01-29T09:28:06;4.90;99.90
61151;DHT22;47029;50.994;2.876;2023-01-29T09:30:31;4.90;99.90
61151;DHT22;47029;50.994;2.876;2023-01-29T09:32:59;5.00;99.90
61151;DHT22;47029;50.994;2.876;2023-01-29T09:35:25;4.90;99.90
61151;DHT22;47029;50.994;2.876;2023-01-29T09:37:51;4.90;99.90
61151;DHT22;47029;50.994;2.876;2023-01-29T09:40:24;4.80;99.90
61151;DHT22;47029;50.994;2.876;2023-01-29T09:43:00;5.10;99.90
61151;DHT22;47029;50.994;2.876;2023-01-29T09:45:27;5.20;99.90
61151;DHT22;47029;50.994;2.876;2023-01-29T09:48:02;5.50;99.90
61151;DHT22;47029;50.994;2.876;2023-01-29T09:50:31;5.50;99.90
61151;DHT22;47029;50.994;2.876;2023-01-29T09:53:52;5.40;99.90
61151;DHT22;47029;50.994;2.876;2023-01-29T09:56:13;5.40;99.90
61151;DHT22;47029;50.994;2.876;2023-01-29T09:58:42;5.40;99.90
61151;DHT22;47029;50.994;2.876;2023-01-29T10:15:23;5.70;99.90
61151;DHT22;47029;50.994;2.876;2023-01-29T10:18:40;5.80;99.90
61151;DHT22;47029;50.994;2.876;2023-01-29T10:25:53;5.70;99.90
61151;DHT22;47029;50.994;2.876;2023-01-29T10:28:44;5.80;99.90
61151;DHT22;47029;50.994;2.876;2023-01-29T10:31:31;5.90;99.90
61151;DHT22;47029;50.994;2.876;2023-01-29T10:34:15;6.00;99.90
61151;DHT22;47029;50.994;2.876;2023-01-29T10:36:47;6.10;99.90
61151;DHT22;47029;50.994;2.876;2023-01-29T10:39:19;6.10;99.90
61151;DHT22;47029;50.994;2.876;2023-01-29T10:47:32;5.80;99.90
61151;DHT22;47029;50.994;2.876;2023-01-29T10:50:07;6.10;99.90
61151;DHT22;47029;50.994;2.876;2023-01-29T10:53:47;6.20;99.90
61151;DHT22;47029;50.994;2.876;2023-01-29T10:56:12;6.20;99.90
61151;DHT22;47029;50.994;2.876;2023-01-29T10:58:47;6.30;99.90
61151;DHT22;47029;50.994;2.876;2023-01-29T11:01:13;6.30;99.90
61151;DHT22;47029;50.994;2.876;2023-01-29T11:03:39;6.40;99.90
61151;DHT22;47029;50.994;2.876;2023-01-29T11:06:10;6.50;99.90
61151;DHT22;47029;50.994;2.876;2023-01-29T11:11:32;6.50;99.90
61151;DHT22;47029;50.994;2.876;2023-01-29T11:14:05;6.40;99.90
61151;DHT22;47029;50.994;2.876;2023-01-29T11:16:42;6.30;99.90
61151;DHT22;47029;50.994;2.876;2023-01-29T11:19:09;6.30;99.90
61151;DHT22;47029;50.994;2.876;2023-01-29T11:24:15;6.60;99.90
61151;DHT22;47029;50.994;2.876;2023-01-29T11:26:42;6.70;99.90
61151;DHT22;47029;50.994;2.876;2023-01-29T11:31:55;6.70;99.90
61151;DHT22;47029;50.994;2.876;2023-01-29T11:34:25;7.00;99.90
61151;DHT22;47029;50.994;2.876;2023-01-29T11:37:14;7.00;99.90
61151;DHT22;47029;50.994;2.876;2023-01-29T11:39:44;7.00;99.90
61151;DHT22;47029;50.994;2.876;2023-01-29T11:42:21;7.00;99.90
61151;DHT22;47029;50.994;2.876;2023-01-29T11:44:48;7.00;99.90
61151;DHT22;47029;50.994;2.876;2023-01-29T11:50:03;7.10;99.90
61151;DHT22;47029;50.994;2.876;2023-01-29T11:52:38;7.00;99.90
61151;DHT22;47029;50.994;2.876;2023-01-29T11:57:52;7.10;99.90
61151;DHT22;47029;50.994;2.876;2023-01-29T12:00:25;7.20;99.90
61151;DHT22;47029;50.994;2.876;2023-01-29T12:05:30;7.20;99.90
61151;DHT22;47029;50.994;2.876;2023-01-29T12:08:00;7.10;99.90
61151;DHT22;47029;50.994;2.876;2023-01-29T12:10:34;7.10;99.90
61151;DHT22;47029;50.994;2.876;2023-01-29T12:13:23;7.00;99.90
61151;DHT22;47029;50.994;2.876;2023-01-29T12:18:42;7.10;99.90
61151;DHT22;47029;50.994;2.876;2023-01-29T12:21:34;7.30;99.90
61151;DHT22;47029;50.994;2.876;2023-01-29T12:27:22;7.40;99.90
61151;DHT22;47029;50.994;2.876;2023-01-29T12:29:55;7.40;99.90
61151;DHT22;47029;50.994;2.876;2023-01-29T12:38:01;7.50;99.90
61151;DHT22;47029;50.994;2.876;2023-01-29T12:40:33;7.50;99.90
61151;DHT22;47029;50.994;2.876;2023-01-29T12:43:10;7.40;99.90
61151;DHT22;47029;50.994;2.876;2023-01-29T12:45:40;7.60;99.90
61151;DHT22;47029;50.994;2.876;2023-01-29T12:48:13;7.60;99.90
61151;DHT22;47029;50.994;2.876;2023-01-29T12:50:46;7.50;99.90
61151;DHT22;47029;50.994;2.876;2023-01-29T12:56:47;7.50;99.90
61151;DHT22;47029;50.994;2.876;2023-01-29T12:58:49;7.60;99.90
61151;DHT22;47029;50.994;2.876;2023-01-29T13:01:23;7.70;99.90
61151;DHT22;47029;50.994;2.876;2023-01-29T13:04:05;7.60;99.90
61151;DHT22;47029;50.994;2.876;2023-01-29T13:06:50;7.70;99.90
61151;DHT22;47029;50.994;2.876;2023-01-29T13:09:24;7.50;99.90
61151;DHT22;47029;50.994;2.876;2023-01-29T13:14:32;7.40;99.90
61151;DHT22;47029;50.994;2.876;2023-01-29T13:20:02;7.60;99.90
61151;DHT22;47029;50.994;2.876;2023-01-29T13:22:33;7.60;99.90
61151;DHT22;47029;50.994;2.876;2023-01-29T13:25:02;7.50;99.90
61151;DHT22;47029;50.994;2.876;2023-01-29T13:27:30;7.40;99.90
61151;DHT22;47029;50.994;2.876;2023-01-29T13:29:57;7.60;99.90
61151;DHT22;47029;50.994;2.876;2023-01-29T13:32:27;7.50;99.90
61151;DHT22;47029;50.994;2.876;2023-01-29T13:35:04;7.50;99.90
61151;DHT22;47029;50.994;2.876;2023-01-29T13:37:36;7.60;99.90
61151;DHT22;47029;50.994;2.876;2023-01-29T13:40:05;7.70;99.90
61151;DHT22;47029;50.994;2.876;2023-01-29T13:42:41;7.70;99.90
61151;DHT22;47029;50.994;2.876;2023-01-29T13:45:21;7.80;99.90
61151;DHT22;47029;50.994;2.876;2023-01-29T13:47:47;7.90;99.90
61151;DHT22;47029;50.994;2.876;2023-01-29T13:52:59;7.40;99.90
61151;DHT22;47029;50.994;2.876;2023-01-29T13:55:36;7.30;99.90
61151;DHT22;47029;50.994;2.876;2023-01-29T13:58:51;7.40;99.90
61151;DHT22;47029;50.994;2.876;2023-01-29T14:01:05;7.50;99.90
61151;DHT22;47029;50.994;2.876;2023-01-29T14:03:41;7.50;99.90
61151;DHT22;47029;50.994;2.876;2023-01-29T14:06:07;7.30;99.90
61151;DHT22;47029;50.994;2.876;2023-01-29T14:08:39;7.40;99.90
61151;DHT22;47029;50.994;2.876;2023-01-29T14:13:38;7.40;99.90
61151;DHT22;47029;50.994;2.876;2023-01-29T14:18:30;7.30;99.90
61151;DHT22;47029;50.994;2.876;2023-01-29T14:26:31;7.50;99.90
61151;DHT22;47029;50.994;2.876;2023-01-29T14:36:47;7.40;99.90
61151;DHT22;47029;50.994;2.876;2023-01-29T14:42:02;7.50;99.90
61151;DHT22;47029;50.994;2.876;2023-01-29T14:47:20;7.70;99.90
61151;DHT22;47029;50.994;2.876;2023-01-29T14:52:22;7.60;99.90
61151;DHT22;47029;50.994;2.876;2023-01-29T14:54:55;7.60;99.90
61151;DHT22;47029;50.994;2.876;2023-01-29T14:57:23;7.40;99.90
61151;DHT22;47029;50.994;2.876;2023-01-29T15:00:01;7.40;99.90
61151;DHT22;47029;50.994;2.876;2023-01-29T15:02:37;7.30;99.90
61151;DHT22;47029;50.994;2.876;2023-01-29T15:05:09;7.40;99.90
61151;DHT22;47029;50.994;2.876;2023-01-29T15:10:24;7.40;99.90
61151;DHT22;47029;50.994;2.876;2023-01-29T15:20:30;7.50;99.90
61151;DHT22;47029;50.994;2.876;2023-01-29T15:22:56;7.70;99.90
61151;DHT22;47029;50.994;2.876;2023-01-29T15:25:22;7.70;99.90
61151;DHT22;47029;50.994;2.876;2023-01-29T15:27:49;7.70;99.90
61151;DHT22;47029;50.994;2.876;2023-01-29T15:30:22;7.60;99.90
61151;DHT22;47029;50.994;2.876;2023-01-29T15:32:50;7.60;99.90
61151;DHT22;47029;50.994;2.876;2023-01-29T15:35:24;7.70;99.90
61151;DHT22;47029;50.994;2.876;2023-01-29T15:40:29;7.50;99.90
61151;DHT22;47029;50.994;2.876;2023-01-29T15:42:55;7.80;99.90
61151;DHT22;47029;50.994;2.876;2023-01-29T15:45:28;7.70;99.90
61151;DHT22;47029;50.994;2.876;2023-01-29T15:48:02;7.60;99.90
61151;DHT22;47029;50.994;2.876;2023-01-29T15:50:30;7.50;99.90
61151;DHT22;47029;50.994;2.876;2023-01-29T15:52:59;7.40;99.90
61151;DHT22;47029;50.994;2.876;2023-01-29T15:55:29;7.40;99.90
61151;DHT22;47029;50.994;2.876;2023-01-29T15:57:55;7.40;99.90
61151;DHT22;47029;50.994;2.876;2023-01-29T16:00:27;7.50;99.90
61151;DHT22;47029;50.994;2.876;2023-01-29T16:02:54;7.60;99.90
61151;DHT22;47029;50.994;2.876;2023-01-29T16:05:25;7.60;99.90
61151;DHT22;47029;50.994;2.876;2023-01-29T16:07:53;7.50;99.90
61151;DHT22;47029;50.994;2.876;2023-01-29T16:10:25;7.30;99.90
61151;DHT22;47029;50.994;2.876;2023-01-29T16:12:52;7.40;99.90
61151;DHT22;47029;50.994;2.876;2023-01-29T16:15:31;7.40;99.90
61151;DHT22;47029;50.994;2.876;2023-01-29T16:17:58;7.30;99.90
61151;DHT22;47029;50.994;2.876;2023-01-29T16:20:39;7.20;99.90
61151;DHT22;47029;50.994;2.876;2023-01-29T16:23:19;7.40;99.90
61151;DHT22;47029;50.994;2.876;2023-01-29T16:25:46;7.40;99.90
61151;DHT22;47029;50.994;2.876;2023-01-29T16:28:13;7.40;99.90
61151;DHT22;47029;50.994;2.876;2023-01-29T16:30:39;7.40;99.90
61151;DHT22;47029;50.994;2.876;2023-01-29T16:33:12;7.30;99.90
61151;DHT22;47029;50.994;2.876;2023-01-29T16:35:39;7.30;99.90
61151;DHT22;47029;50.994;2.876;2023-01-29T16:38:26;7.30;99.90
61151;DHT22;47029;50.994;2.876;2023-01-29T16:41:17;7.40;99.90
61151;DHT22;47029;50.994;2.876;2023-01-29T16:46:47;7.30;99.90
61151;DHT22;47029;50.994;2.876;2023-01-29T16:51:52;7.20;99.90
61151;DHT22;47029;50.994;2.876;2023-01-29T16:54:24;7.20;99.90
61151;DHT22;47029;50.994;2.876;2023-01-29T16:56:57;7.20;99.90
61151;DHT22;47029;50.994;2.876;2023-01-29T16:59:31;7.40;99.90
61151;DHT22;47029;50.994;2.876;2023-01-29T17:02:00;7.40;99.90
61151;DHT22;47029;50.994;2.876;2023-01-29T17:04:27;7.50;99.90
61151;DHT22;47029;50.994;2.876;2023-01-29T17:06:58;7.40;99.90
61151;DHT22;47029;50.994;2.876;2023-01-29T17:09:36;7.50;99.90
61151;DHT22;47029;50.994;2.876;2023-01-29T17:12:05;7.40;99.90
61151;DHT22;47029;50.994;2.876;2023-01-29T17:14:32;7.50;99.90
61151;DHT22;47029;50.994;2.876;2023-01-29T17:17:13;7.50;99.90
61151;DHT22;47029;50.994;2.876;2023-01-29T17:19:39;7.60;99.90
61151;DHT22;47029;50.994;2.876;2023-01-29T17:22:05;7.50;99.90
61151;DHT22;47029;50.994;2.876;2023-01-29T17:24:33;7.40;99.90
61151;DHT22;47029;50.994;2.876;2023-01-29T17:27:00;7.30;99.90
61151;DHT22;47029;50.994;2.876;2023-01-29T17:29:30;7.20;99.90
61151;DHT22;47029;50.994;2.876;2023-01-29T17:31:56;7.20;99.90
61151;DHT22;47029;50.994;2.876;2023-01-29T17:34:24;7.30;99.90
61151;DHT22;47029;50.994;2.876;2023-01-29T17:36:50;7.20;99.90
61151;DHT22;47029;50.994;2.876;2023-01-29T17:39:18;7.30;99.90
61151;DHT22;47029;50.994;2.876;2023-01-29T17:41:49;7.30;99.90
61151;DHT22;47029;50.994;2.876;2023-01-29T17:44:20;7.30;99.90
61151;DHT22;47029;50.994;2.876;2023-01-29T17:46:46;7.40;99.90
61151;DHT22;47029;50.994;2.876;2023-01-29T17:49:28;7.40;99.90
61151;DHT22;47029;50.994;2.876;2023-01-29T17:51:55;7.40;99.90
61151;DHT22;47029;50.994;2.876;2023-01-29T17:54:21;7.30;99.90
61151;DHT22;47029;50.994;2.876;2023-01-29T17:56:48;7.10;99.90
61151;DHT22;47029;50.994;2.876;2023-01-29T17:59:22;7.10;99.90
61151;DHT22;47029;50.994;2.876;2023-01-29T18:01:49;7.20;99.90
61151;DHT22;47029;50.994;2.876;2023-01-29T18:04:16;7.30;99.90
61151;DHT22;47029;50.994;2.876;2023-01-29T18:06:43;7.10;99.90
61151;DHT22;47029;50.994;2.876;2023-01-29T18:09:15;7.10;99.90
61151;DHT22;47029;50.994;2.876;2023-01-29T18:11:41;6.90;99.90
61151;DHT22;47029;50.994;2.876;2023-01-29T18:14:08;7.10;99.90
61151;DHT22;47029;50.994;2.876;2023-01-29T18:16:34;7.00;99.90
61151;DHT22;47029;50.994;2.876;2023-01-29T18:19:12;7.10;99.90
61151;DHT22;47029;50.994;2.876;2023-01-29T18:21:38;7.20;99.90
61151;DHT22;47029;50.994;2.876;2023-01-29T18:24:04;7.20;99.90
61151;DHT22;47029;50.994;2.876;2023-01-29T18:26:30;7.20;99.90
61151;DHT22;47029;50.994;2.876;2023-01-29T18:28:55;7.00;99.90
61151;DHT22;47029;50.994;2.876;2023-01-29T18:31:21;7.10;99.90
61151;DHT22;47029;50.994;2.876;2023-01-29T18:33:47;7.10;99.90
61151;DHT22;47029;50.994;2.876;2023-01-29T18:36:12;7.30;99.90
61151;DHT22;47029;50.994;2.876;2023-01-29T18:38:38;7.50;99.90
61151;DHT22;47029;50.994;2.876;2023-01-29T18:41:06;7.20;99.90
61151;DHT22;47029;50.994;2.876;2023-01-29T18:43:38;7.10;99.90
61151;DHT22;47029;50.994;2.876;2023-01-29T18:46:04;7.00;99.90